Language selection

Weather shortcuts

West Coast Vancouver Island North: Past 24 Hour Conditions

 

Dixon Entrance Central - 46145

07:00 PM PDT 19 May 2024Buoy position: 54.22N 132.27W
Disclaimer

This table is a summary of hourly weather conditions for the past 24 hours.
Please note that these observations might not always be representative of weather conditions over their associated marine area.

Date / Time
(PDT)
Wind(knots) Wave height(m) Wave period(s) Pressure(kPa) Air tempC) Water tempC)
19 May 2024
19:00 SSE 9 gusts 11 1.00 8.0 102.5 8 9
18:00 S 11 gusts 12 0.90 7.8 102.6 9 9
17:00 SSE 10 gusts 12 1.00 8.0 102.6 9 10
16:00 SE 6 gusts 8 0.90 8.5 102.7 9 10
15:00 calm 1.00 8.3 102.7 10 10
14:00 W 3 gusts 4 1.00 8.5 102.7 9 10
13:00 NW 5 gusts 8 1.10 8.8 102.7 9 9
12:00 WNW 3 gusts 4 1.10 8.8 102.7 8 9
11:00 NW 8 gusts 10 1.30 8.0 102.7 8 9
10:00 WNW 11 gusts 13 1.40 7.8 102.6 8 9
9:00 NW 12 gusts 14 1.40 8.8 102.6 8 9
8:00 NW 11 gusts 13 1.40 8.8 102.6 8 9
7:00 NNW 13 gusts 16 1.50 8.3 102.6 8 9
6:00 NW 14 gusts 17 N/A 8.0 102.5 8 9
5:00 NNW 15 gusts 18 1.40 8.3 102.5 9 9
4:00 N 13 gusts 18 1.40 8.8 102.5 9 9
3:00 N 14 gusts 17 1.40 9.1 102.4 8 9
2:00 N 15 gusts 17 1.60 8.8 102.4 8 9
1:00 N 17 gusts 21 1.60 9.5 102.4 8 9
0:00 NNW 17 gusts 19 1.70 8.3 102.3 9 9
18 May 2024
23:00 NNW 16 gusts 19 1.70 8.8 102.3 9 9
22:00 NNW 17 gusts 22 1.70 8.3 102.3 8 9
21:00 NNW 17 gusts 19 1.60 8.8 102.3 9 9
20:00 NNW 19 gusts 22 1.70 8.8 102.2 9 9
19:00 NNW 17 gusts 21 1.60 8.5 102.2 9 9

Zoom-in to make a selection

Map of Pacific - North Coast marine weather areas Middle Nomad - 46004 South Nomad - 46036 Dixon Entrance Central - 46145 South Moresby - 46147 Nanakwa Shoal - 46181 North Hecate Strait - 46183 North Nomad - 46184 South Hecate Strait - 46185 West Sea Otter - 46204 West Dixon Entrance - 46205 East Dellwood - 46207 West Moresby - 46208 Sartine Island Cape St.James Kindakun Rocks Langara Island Masset Municipal Airport Rose Spit Sandspit Airport Bella Bella Airport Bella Coola Airport Bonilla Island Cathedral Point Cumshewa Island Grey Islet Holland Rock Lucy Islands Lightstation Prince Rupert Airport
Legend:
buoy Buoy
land station Land Station

Pacific - North Coast Area

Another Region

Date modified: